Terminal Aerodrome Forecast
Issued by NWS

Home | Current Version | Previous Version | Text Only | Print | Product List | Glossary On
Versions: 1 2 3 4 5 6 7 8 9 10 11 12 13 14 15
000
FTUS42 KMLB 241700
TAFTIX
TAF
KTIX 241720Z 2418/2518 21013KT P6SM SCT025 BKN035
      TEMPO 2418/2420 BKN025
     FM250100 19005KT P6SM SCT040 BKN250
     FM250800 19004KT 4SM BR BKN010
     FM251500 21009KT P6SM VCSH BKN012=

USA.gov is the U.S. government's official web portal to all federal, state and local government web resources and services.